Time;durP1;ratioP1;P1;durP2;ratioP2;P2;SDS_P1;SDS_P2;PMS_P1;PMS_P2;Temp;Humidity;BMP_temperature;BMP_pressure;BME280_temperature;BME280_humidity;BME280_pressure;Samples;Min_cycle;Max_cycle;Signal;HPM_P1;HPM_P2
2023/01/23 00:00:52;;;;;;;14.57;7.97;;;2.40;99.90;;;;;;5097780;28;20031;-73
2023/01/23 00:03:18;;;;;;;14.70;7.63;;;2.40;99.90;;;;;;5108837;28;20161;-74
2023/01/23 00:05:44;;;;;;;12.13;7.00;;;2.30;99.90;;;;;;5077087;28;20052;-72
2023/01/23 00:08:10;;;;;;;13.23;7.23;;;2.40;99.90;;;;;;5077517;28;20582;-71
2023/01/23 00:10:37;;;;;;;16.40;8.33;;;2.30;99.90;;;;;;5108160;28;20036;-72
2023/01/23 00:13:03;;;;;;;15.10;7.87;;;2.30;99.90;;;;;;5098512;28;20019;-72
2023/01/23 00:15:29;;;;;;;14.77;8.27;;;2.30;99.90;;;;;;5115761;28;20027;-73
2023/01/23 00:17:54;;;;;;;17.13;8.27;;;2.20;99.90;;;;;;5099223;28;20067;-72
2023/01/23 00:20:20;;;;;;;17.23;7.90;;;2.30;99.90;;;;;;5113719;28;20035;-73
2023/01/23 00:22:45;;;;;;;14.57;7.77;;;2.20;99.90;;;;;;5115963;28;20473;-72
2023/01/23 00:25:11;;;;;;;16.30;8.27;;;2.10;99.90;;;;;;5114556;28;20024;-72
2023/01/23 00:27:36;;;;;;;16.33;8.13;;;2.20;99.90;;;;;;5113947;28;20023;-73
2023/01/23 00:30:03;;;;;;;16.73;7.80;;;2.20;99.90;;;;;;5114255;28;20142;-72
2023/01/23 00:32:28;;;;;;;15.40;8.13;;;2.30;99.90;;;;;;5114318;28;20086;-72
2023/01/23 00:34:54;;;;;;;16.83;8.07;;;2.30;99.90;;;;;;5114317;28;20050;-72
2023/01/23 00:37:19;;;;;;;17.43;8.43;;;2.20;99.90;;;;;;5115053;28;20028;-74
2023/01/23 00:39:45;;;;;;;15.20;8.20;;;2.20;99.90;;;;;;5116061;28;20397;-73
2023/01/23 00:42:26;;;;;;;18.13;8.00;;;2.20;99.90;;;;;;5115232;28;20038;-73
2023/01/23 00:44:52;;;;;;;16.20;8.13;;;2.20;99.90;;;;;;5113073;28;20051;-73
2023/01/23 00:47:17;;;;;;;15.53;7.63;;;2.20;99.90;;;;;;5111388;28;20348;-72
2023/01/23 00:49:43;;;;;;;15.07;7.57;;;2.20;99.90;;;;;;5112354;28;20412;-73
2023/01/23 00:52:09;;;;;;;16.93;7.90;;;2.20;99.90;;;;;;5112875;28;20038;-72
2023/01/23 00:54:37;;;;;;;17.27;8.20;;;2.20;99.90;;;;;;5110586;28;20031;-72
2023/01/23 00:57:02;;;;;;;15.00;7.80;;;2.20;99.90;;;;;;5111508;28;20032;-72
2023/01/23 00:59:28;;;;;;;15.47;7.90;;;2.20;99.90;;;;;;5110428;28;20046;-73
2023/01/23 01:01:54;;;;;;;14.30;7.33;;;2.10;99.90;;;;;;5111259;28;20088;-72
2023/01/23 01:04:19;;;;;;;14.00;7.63;;;2.10;99.90;;;;;;5111005;28;20114;-73
2023/01/23 01:06:45;;;;;;;13.60;7.20;;;2.20;99.90;;;;;;5113696;28;20020;-71
2023/01/23 01:09:11;;;;;;;15.27;8.03;;;2.20;99.90;;;;;;5116758;28;20441;-72
2023/01/23 01:11:36;;;;;;;14.77;7.50;;;2.20;99.90;;;;;;5117160;28;20035;-72
2023/01/23 01:14:02;;;;;;;14.23;7.10;;;2.30;99.90;;;;;;5118087;28;20055;-72
2023/01/23 01:16:28;;;;;;;17.33;7.97;;;2.20;99.90;;;;;;5116108;28;20043;-73
2023/01/23 01:18:53;;;;;;;13.80;7.37;;;2.20;99.90;;;;;;5114885;28;20087;-73
2023/01/23 01:21:19;;;;;;;17.17;7.87;;;2.20;99.90;;;;;;5116448;28;20039;-72
2023/01/23 01:23:45;;;;;;;14.43;7.23;;;2.20;99.90;;;;;;5114351;28;20031;-73
2023/01/23 01:26:12;;;;;;;16.03;8.03;;;2.20;99.90;;;;;;5115068;28;20020;-73
2023/01/23 01:28:39;;;;;;;14.97;8.10;;;2.20;99.90;;;;;;5114265;28;20035;-73
2023/01/23 01:31:08;;;;;;;13.77;6.80;;;2.20;99.90;;;;;;5114992;28;20028;-72
2023/01/23 01:33:34;;;;;;;15.50;7.97;;;2.20;99.90;;;;;;5115648;28;20024;-73
2023/01/23 01:36:01;;;;;;;14.37;7.60;;;2.20;99.90;;;;;;5116181;28;20073;-73
2023/01/23 01:38:26;;;;;;;15.70;7.60;;;2.20;99.90;;;;;;5114120;28;20027;-73
2023/01/23 01:40:52;;;;;;;15.07;7.67;;;2.20;99.90;;;;;;5114623;28;20499;-73
2023/01/23 01:43:21;;;;;;;15.87;7.67;;;2.20;99.90;;;;;;5114795;28;20057;-72
2023/01/23 01:46:14;;;;;;;14.83;7.87;;;2.20;99.90;;;;;;5113523;28;20028;-73
2023/01/23 01:48:48;;;;;;;14.83;7.50;;;2.20;99.90;;;;;;5115136;28;20024;-73
2023/01/23 01:51:20;;;;;;;15.90;7.50;;;2.30;99.90;;;;;;5114704;28;20032;-72
2023/01/23 01:53:51;;;;;;;13.82;6.70;;;2.20;99.90;;;;;;5114903;28;20592;-72
2023/01/23 01:56:18;;;;;;;13.65;7.55;;;2.30;99.90;;;;;;5116207;28;20035;-72
2023/01/23 01:58:46;;;;;;;14.53;7.27;;;2.20;99.90;;;;;;5115361;28;20199;-72
2023/01/23 02:01:12;;;;;;;18.67;7.70;;;2.20;99.90;;;;;;5115656;28;20094;-73
2023/01/23 02:03:38;;;;;;;14.17;7.10;;;2.20;99.90;;;;;;5114899;28;20020;-72
2023/01/23 02:06:05;;;;;;;16.40;7.00;;;2.20;99.90;;;;;;5115600;28;20194;-73
2023/01/23 02:08:49;;;;;;;13.83;7.30;;;2.10;99.90;;;;;;5113605;28;20030;-73
2023/01/23 02:11:17;;;;;;;9.47;6.20;;;2.20;99.90;;;;;;5114364;28;20035;-72
2023/01/23 02:13:44;;;;;;;14.37;6.73;;;2.20;99.90;;;;;;5113493;28;20055;-73
2023/01/23 02:16:20;;;;;;;13.90;7.17;;;2.20;99.90;;;;;;5114362;28;20358;-73
2023/01/23 02:18:52;;;;;;;13.33;6.60;;;2.20;99.90;;;;;;5114586;28;20657;-73
2023/01/23 02:21:23;;;;;;;12.13;7.07;;;2.10;99.90;;;;;;5113862;28;20035;-73
2023/01/23 02:24:16;;;;;;;11.90;6.00;;;2.10;99.90;;;;;;5096169;28;20036;-73
2023/01/23 02:26:44;;;;;;;14.63;6.73;;;2.10;99.90;;;;;;5096222;28;20089;-72
2023/01/23 02:29:10;;;;;;;13.50;6.33;;;2.00;99.90;;;;;;5096492;28;20061;-72
2023/01/23 02:31:36;;;;;;;15.20;7.23;;;2.00;99.90;;;;;;5096018;28;20028;-72
2023/01/23 02:34:04;;;;;;;11.17;6.60;;;2.00;99.90;;;;;;5115028;28;20526;-73
2023/01/23 02:36:32;;;;;;;15.50;6.93;;;2.00;99.90;;;;;;5096048;28;20019;-73
2023/01/23 02:39:12;;;;;;;13.27;6.57;;;2.00;99.90;;;;;;5096589;28;20038;-73
2023/01/23 02:41:47;;;;;;;14.20;6.37;;;2.00;99.90;;;;;;5095903;28;20028;-73
2023/01/23 02:44:18;;;;;;;14.47;7.43;;;2.10;99.90;;;;;;5096603;28;20384;-72
2023/01/23 02:46:44;;;;;;;13.13;6.72;;;2.10;99.90;;;;;;5096018;28;20035;-72
2023/01/23 02:49:10;;;;;;;14.83;7.03;;;2.00;99.90;;;;;;5115048;28;20076;-73
2023/01/23 02:51:36;;;;;;;13.30;6.80;;;2.00;99.90;;;;;;5095861;28;20031;-72
2023/01/23 02:54:02;;;;;;;13.63;6.70;;;2.00;99.90;;;;;;5114672;28;20024;-72
2023/01/23 02:56:28;;;;;;;13.93;6.83;;;2.00;99.90;;;;;;5114291;28;20024;-73
2023/01/23 03:01:38;;;;;;;14.40;7.07;;;2.00;99.90;;;;;;5113529;28;20084;-73
2023/01/23 03:04:05;;;;;;;13.57;6.67;;;2.00;99.90;;;;;;5096170;28;20061;-73
2023/01/23 03:06:36;;;;;;;13.93;6.87;;;2.00;99.90;;;;;;5113686;28;20027;-73
2023/01/23 03:09:04;;;;;;;13.50;6.77;;;2.00;99.90;;;;;;5114497;28;20055;-73
2023/01/23 03:11:31;;;;;;;15.13;6.97;;;2.10;99.90;;;;;;5095682;28;20112;-74
2023/01/23 03:13:56;;;;;;;15.93;7.57;;;2.10;99.90;;;;;;5114297;28;20107;-72
2023/01/23 03:16:22;;;;;;;12.77;6.37;;;2.10;99.90;;;;;;5114007;28;20103;-73
2023/01/23 03:18:48;;;;;;;14.73;7.40;;;2.20;99.90;;;;;;5103923;28;20514;-73
2023/01/23 03:21:14;;;;;;;13.43;6.80;;;2.20;99.90;;;;;;5112834;28;20039;-73
2023/01/23 03:23:40;;;;;;;14.63;7.03;;;2.20;99.90;;;;;;5112096;28;20023;-73
2023/01/23 03:26:06;;;;;;;14.57;7.00;;;2.20;99.90;;;;;;5112846;28;20030;-72
2023/01/23 03:31:16;;;;;;;15.30;7.00;;;2.20;99.90;;;;;;5113650;28;20077;-72
2023/01/23 03:33:43;;;;;;;13.47;6.87;;;2.20;99.90;;;;;;5111635;28;20024;-72
2023/01/23 03:36:10;;;;;;;14.47;6.47;;;2.20;99.90;;;;;;5113936;28;20023;-72
2023/01/23 03:38:36;;;;;;;12.33;6.50;;;2.20;99.90;;;;;;5111772;28;20050;-73
2023/01/23 03:43:46;;;;;;;14.10;6.10;;;2.20;99.90;;;;;;5113090;28;20069;-72
2023/01/23 03:46:12;;;;;;;12.30;6.17;;;2.20;99.90;;;;;;5113442;28;20027;-72
2023/01/23 03:48:38;;;;;;;12.73;6.10;;;2.30;99.90;;;;;;5111443;28;20123;-73
2023/01/23 03:51:04;;;;;;;14.40;6.70;;;2.30;99.90;;;;;;5112296;28;20438;-73
2023/01/23 03:53:30;;;;;;;12.97;6.27;;;2.30;99.90;;;;;;5113615;28;20024;-74
2023/01/23 03:55:55;;;;;;;13.23;6.37;;;2.20;99.90;;;;;;5112683;28;20024;-73
2023/01/23 03:58:21;;;;;;;12.10;6.40;;;2.10;99.90;;;;;;5112237;28;20057;-73
2023/01/23 04:00:47;;;;;;;13.50;6.47;;;2.20;99.90;;;;;;5111244;28;20031;-73
2023/01/23 04:03:12;;;;;;;14.43;6.87;;;2.20;99.90;;;;;;5112097;28;20027;-72
2023/01/23 04:05:38;;;;;;;13.93;6.40;;;2.20;99.90;;;;;;5111314;28;20024;-73
2023/01/23 04:08:04;;;;;;;11.53;6.37;;;2.20;99.90;;;;;;5112509;28;20186;-73
2023/01/23 04:10:30;;;;;;;13.73;6.70;;;2.10;99.90;;;;;;5111525;28;20023;-73
2023/01/23 04:12:55;;;;;;;11.43;6.07;;;2.20;99.90;;;;;;5111172;28;20023;-73
2023/01/23 04:15:21;;;;;;;14.20;6.80;;;2.20;99.90;;;;;;5111775;28;20026;-73
2023/01/23 04:17:47;;;;;;;15.30;6.77;;;2.20;99.90;;;;;;5110789;28;20123;-73
2023/01/23 04:20:13;;;;;;;11.60;6.23;;;2.20;99.90;;;;;;5111793;28;20086;-73
2023/01/23 04:22:39;;;;;;;11.97;6.00;;;2.20;99.90;;;;;;5110932;28;20038;-73
2023/01/23 04:25:06;;;;;;;15.03;7.60;;;2.30;99.90;;;;;;5111873;28;20122;-73
2023/01/23 04:27:32;;;;;;;14.20;6.70;;;2.20;99.90;;;;;;5111523;28;20024;-74
2023/01/23 04:29:57;;;;;;;12.13;6.40;;;2.20;99.90;;;;;;5111111;28;20534;-72
2023/01/23 04:32:24;;;;;;;12.10;6.40;;;2.20;99.90;;;;;;5111626;28;20069;-73
2023/01/23 04:34:50;;;;;;;13.10;6.50;;;2.20;99.90;;;;;;5110843;28;20030;-73
2023/01/23 04:37:16;;;;;;;13.27;6.90;;;2.20;99.90;;;;;;5112884;28;20368;-73
2023/01/23 04:39:42;;;;;;;21.57;7.60;;;2.20;99.90;;;;;;5111947;28;20392;-73
2023/01/23 04:42:08;;;;;;;13.40;6.70;;;2.20;99.90;;;;;;5111559;28;20027;-73
2023/01/23 04:44:34;;;;;;;13.43;7.03;;;2.20;99.90;;;;;;5111662;28;20062;-74
2023/01/23 04:47:00;;;;;;;12.20;6.33;;;2.20;99.90;;;;;;5112921;28;20036;-73
2023/01/23 04:49:25;;;;;;;14.13;6.30;;;2.20;99.90;;;;;;5112718;28;20039;-73
2023/01/23 04:51:52;;;;;;;14.47;6.67;;;2.20;99.90;;;;;;5112175;28;20035;-73
2023/01/23 04:54:19;;;;;;;12.63;6.30;;;2.20;99.90;;;;;;5111259;28;20110;-73
2023/01/23 04:56:45;;;;;;;12.37;6.73;;;2.20;99.90;;;;;;5110665;28;20464;-73
2023/01/23 04:59:11;;;;;;;16.47;6.70;;;2.10;99.90;;;;;;5112881;28;20460;-73
2023/01/23 05:01:37;;;;;;;14.60;6.27;;;2.20;99.90;;;;;;5111770;28;20434;-73
2023/01/23 05:04:03;;;;;;;11.80;6.07;;;2.20;99.90;;;;;;5111315;28;20053;-73
2023/01/23 05:06:29;;;;;;;10.83;6.00;;;2.20;99.90;;;;;;5111249;28;20384;-72
2023/01/23 05:08:55;;;;;;;12.93;6.63;;;2.20;99.90;;;;;;5111785;28;20104;-72
2023/01/23 05:11:21;;;;;;;13.27;6.40;;;2.20;99.90;;;;;;5112564;28;20098;-72
2023/01/23 05:13:46;;;;;;;14.43;7.03;;;2.20;99.90;;;;;;5111573;28;20024;-73
2023/01/23 05:16:12;;;;;;;12.03;6.17;;;2.20;99.90;;;;;;5112227;28;20065;-72
2023/01/23 05:18:37;;;;;;;12.30;6.10;;;2.20;99.90;;;;;;5111678;28;20464;-73
2023/01/23 05:21:03;;;;;;;11.10;5.70;;;2.20;99.90;;;;;;5112408;28;20043;-73
2023/01/23 05:23:29;;;;;;;12.07;5.70;;;2.20;99.90;;;;;;5094139;28;20023;-72
2023/01/23 05:25:54;;;;;;;11.03;5.83;;;2.20;99.90;;;;;;5093492;28;20139;-72
2023/01/23 05:28:20;;;;;;;13.33;6.27;;;2.20;99.90;;;;;;5094207;28;20031;-73
2023/01/23 05:30:46;;;;;;;13.03;6.17;;;2.20;99.90;;;;;;5093394;28;20032;-73
2023/01/23 05:33:11;;;;;;;10.50;5.17;;;2.20;99.90;;;;;;5112185;28;20456;-72
2023/01/23 05:35:40;;;;;;;12.90;6.13;;;2.10;99.90;;;;;;5093642;28;20080;-73
2023/01/23 05:38:06;;;;;;;14.83;6.57;;;2.20;99.90;;;;;;5093962;28;20375;-73
2023/01/23 05:40:31;;;;;;;13.83;6.37;;;2.10;99.90;;;;;;5093997;28;20169;-73
2023/01/23 05:42:57;;;;;;;11.47;6.07;;;2.10;99.90;;;;;;5111747;28;20035;-73
2023/01/23 05:45:23;;;;;;;13.23;6.07;;;2.10;99.90;;;;;;5093825;28;20028;-73
2023/01/23 05:47:49;;;;;;;12.93;6.23;;;2.10;99.90;;;;;;5093160;28;20031;-73
2023/01/23 05:50:17;;;;;;;13.57;6.07;;;2.10;99.90;;;;;;5093658;28;20032;-73
2023/01/23 05:52:43;;;;;;;11.77;5.77;;;2.10;99.90;;;;;;5093269;28;20127;-73
2023/01/23 05:55:09;;;;;;;13.67;6.57;;;2.10;99.90;;;;;;5094917;28;20020;-73
2023/01/23 05:57:35;;;;;;;11.83;5.67;;;2.10;99.90;;;;;;5097288;28;20119;-72
2023/01/23 06:00:01;;;;;;;14.37;6.07;;;2.10;99.90;;;;;;5096657;28;20134;-72
2023/01/23 06:02:26;;;;;;;13.03;6.23;;;2.00;99.90;;;;;;5097376;28;20411;-73
2023/01/23 06:04:52;;;;;;;12.20;5.77;;;2.00;99.90;;;;;;5096627;28;20499;-72
2023/01/23 06:07:19;;;;;;;10.97;5.77;;;1.90;99.90;;;;;;5115631;28;20031;-72
2023/01/23 06:09:45;;;;;;;12.27;6.03;;;1.90;99.90;;;;;;5114721;28;20024;-72
2023/01/23 06:12:11;;;;;;;13.57;5.80;;;1.80;99.90;;;;;;5096969;28;20030;-73
2023/01/23 06:14:36;;;;;;;11.53;5.47;;;1.80;99.90;;;;;;5097070;28;20028;-73
2023/01/23 06:17:03;;;;;;;11.67;5.37;;;1.80;99.90;;;;;;5096297;28;20032;-72
2023/01/23 06:19:28;;;;;;;13.90;6.23;;;1.80;99.90;;;;;;5111482;28;20044;-72
2023/01/23 06:21:54;;;;;;;11.47;5.50;;;1.70;99.90;;;;;;5114214;28;20177;-73
2023/01/23 06:24:19;;;;;;;13.30;6.07;;;1.70;99.90;;;;;;5115165;28;20047;-72
2023/01/23 06:26:45;;;;;;;11.60;5.70;;;1.70;99.90;;;;;;5114464;28;20038;-73
2023/01/23 06:29:10;;;;;;;12.30;5.53;;;1.60;99.90;;;;;;5114003;28;20024;-73
2023/01/23 06:31:36;;;;;;;11.50;5.57;;;1.60;99.90;;;;;;5114005;28;20038;-73
2023/01/23 06:34:02;;;;;;;12.73;5.80;;;1.60;99.90;;;;;;5114416;28;20680;-73
2023/01/23 06:36:28;;;;;;;14.10;6.60;;;1.60;99.90;;;;;;5114744;28;20068;-72
2023/01/23 06:38:53;;;;;;;13.70;6.03;;;1.60;99.90;;;;;;5114312;28;20107;-73
2023/01/23 06:41:19;;;;;;;11.90;6.07;;;1.50;99.90;;;;;;5113605;28;20028;-73
2023/01/23 06:43:45;;;;;;;13.40;5.60;;;1.50;99.90;;;;;;5112874;28;20469;-73
2023/01/23 06:46:11;;;;;;;13.73;6.40;;;1.50;99.90;;;;;;5113794;28;20032;-73
2023/01/23 06:48:37;;;;;;;15.37;6.50;;;1.50;99.90;;;;;;5114790;28;20030;-72
2023/01/23 06:51:04;;;;;;;15.63;6.80;;;1.50;99.90;;;;;;5112801;28;20032;-73
2023/01/23 06:53:30;;;;;;;12.70;6.33;;;1.50;99.90;;;;;;5114980;28;20460;-72
2023/01/23 06:56:06;;;;;;;12.50;5.93;;;1.50;99.90;;;;;;5112381;28;20028;-73
2023/01/23 06:58:33;;;;;;;14.53;6.37;;;1.50;99.90;;;;;;5113433;28;20026;-73
2023/01/23 07:01:06;;;;;;;12.53;6.50;;;1.50;99.90;;;;;;5113782;28;20530;-73
2023/01/23 07:03:32;;;;;;;11.97;5.37;;;1.60;99.90;;;;;;5114767;28;20024;-73
2023/01/23 07:06:01;;;;;;;11.77;5.63;;;1.60;99.90;;;;;;5113665;28;20035;-73
2023/01/23 07:08:27;;;;;;;13.83;6.20;;;1.60;99.90;;;;;;5113512;28;20019;-73
2023/01/23 07:10:53;;;;;;;12.43;5.57;;;1.70;99.90;;;;;;5112340;28;20031;-73
2023/01/23 07:13:19;;;;;;;12.30;5.80;;;1.70;99.90;;;;;;5114621;28;20470;-73
2023/01/23 07:15:45;;;;;;;13.50;6.17;;;1.70;99.90;;;;;;5112562;28;20020;-75
2023/01/23 07:18:11;;;;;;;12.10;5.83;;;1.80;99.90;;;;;;5114213;28;20437;-73
2023/01/23 07:20:37;;;;;;;11.67;5.10;;;1.80;99.90;;;;;;5114281;28;20092;-73
2023/01/23 07:23:02;;;;;;;11.13;5.70;;;1.80;99.90;;;;;;5095038;28;20610;-73
2023/01/23 07:25:29;;;;;;;12.23;5.87;;;1.90;99.90;;;;;;5114014;28;20152;-73
2023/01/23 07:27:55;;;;;;;12.60;5.60;;;1.90;99.90;;;;;;5095116;28;20122;-73
2023/01/23 07:30:20;;;;;;;13.50;6.37;;;1.90;99.90;;;;;;5095707;28;20513;-73
2023/01/23 07:32:46;;;;;;;14.30;6.53;;;1.90;99.90;;;;;;5113257;28;20023;-73
2023/01/23 07:35:11;;;;;;;12.40;6.07;;;1.90;99.90;;;;;;5095621;28;20076;-73
2023/01/23 07:37:37;;;;;;;14.03;5.90;;;1.90;99.90;;;;;;5095593;28;20023;-73
2023/01/23 07:40:03;;;;;;;13.00;6.03;;;1.90;99.90;;;;;;5113013;28;20067;-72
2023/01/23 07:42:28;;;;;;;11.63;6.23;;;1.90;99.90;;;;;;5113780;28;20032;-72
2023/01/23 07:44:54;;;;;;;15.07;6.60;;;1.90;99.90;;;;;;5094772;28;20035;-72
2023/01/23 07:47:19;;;;;;;10.97;5.27;;;1.90;99.90;;;;;;5095512;28;20115;-72
2023/01/23 07:49:45;;;;;;;10.37;5.53;;;1.90;99.90;;;;;;5113016;28;20055;-74
2023/01/23 07:52:11;;;;;;;11.57;5.73;;;1.90;99.90;;;;;;5078339;28;20086;-72
2023/01/23 07:54:36;;;;;;;13.03;5.90;;;1.90;99.90;;;;;;5106146;27;20020;-72
2023/01/23 07:57:02;;;;;;;11.17;5.50;;;2.00;99.90;;;;;;5091904;28;20379;-72
2023/01/23 07:59:28;;;;;;;11.13;5.40;;;2.00;99.90;;;;;;5111842;28;20397;-73
2023/01/23 08:01:53;;;;;;;12.17;5.83;;;2.00;99.90;;;;;;5111667;28;20036;-74
2023/01/23 08:04:19;;;;;;;12.50;6.00;;;2.00;99.90;;;;;;5112809;28;20102;-73
2023/01/23 08:06:45;;;;;;;12.87;6.00;;;2.00;99.90;;;;;;5094573;28;20035;-73
2023/01/23 08:09:11;;;;;;;15.53;5.77;;;2.10;99.90;;;;;;5112453;28;20024;-73
2023/01/23 08:11:36;;;;;;;12.27;5.87;;;2.10;99.90;;;;;;5094380;28;20035;-73
2023/01/23 08:14:02;;;;;;;13.83;5.97;;;2.10;99.90;;;;;;5093718;28;20068;-73
2023/01/23 08:16:28;;;;;;;13.20;6.03;;;2.10;99.90;;;;;;5112869;28;20464;-72
2023/01/23 08:18:53;;;;;;;13.73;6.07;;;2.10;99.90;;;;;;5090047;28;20075;-73
2023/01/23 08:21:19;;;;;;;12.23;5.60;;;2.10;99.90;;;;;;5079205;28;20035;-78
2023/01/23 08:23:45;;;;;;;13.03;5.57;;;2.10;99.90;;;;;;5082826;28;20058;-74
2023/01/23 08:26:13;;;;;;;13.43;6.00;;;2.10;99.90;;;;;;5090748;28;20024;-73
2023/01/23 08:28:42;;;;;;;14.87;6.23;;;2.20;99.90;;;;;;5090294;28;20461;-72
2023/01/23 08:31:10;;;;;;;15.23;6.30;;;2.20;99.90;;;;;;5090423;28;20376;-73
2023/01/23 08:33:37;;;;;;;17.63;6.43;;;2.20;99.90;;;;;;5090699;28;20024;-74
2023/01/23 08:36:04;;;;;;;17.30;6.13;;;2.30;99.90;;;;;;5091315;28;20028;-74
2023/01/23 08:38:30;;;;;;;17.47;6.33;;;2.30;99.90;;;;;;5090546;28;20036;-75
2023/01/23 08:41:01;;;;;;;14.20;6.20;;;2.30;99.90;;;;;;5090909;28;20043;-74
2023/01/23 08:43:27;;;;;;;15.67;6.13;;;2.30;99.90;;;;;;5090249;28;20441;-75
2023/01/23 08:45:54;;;;;;;14.17;6.27;;;2.40;99.90;;;;;;5089162;28;20115;-74
2023/01/23 08:48:22;;;;;;;14.10;6.57;;;2.40;99.90;;;;;;5090705;28;20032;-74
2023/01/23 08:50:48;;;;;;;12.87;6.53;;;2.40;99.90;;;;;;5085977;28;20032;-77
2023/01/23 08:53:14;;;;;;;15.47;6.70;;;2.40;99.90;;;;;;5080076;28;20113;-74
2023/01/23 08:55:40;;;;;;;12.87;6.17;;;2.50;99.90;;;;;;5091870;28;20056;-74
2023/01/23 08:58:07;;;;;;;14.47;6.33;;;2.50;99.90;;;;;;5089752;28;20101;-76
2023/01/23 09:00:33;;;;;;;13.67;5.93;;;2.50;99.90;;;;;;5090441;28;20028;-75
2023/01/23 09:03:00;;;;;;;19.03;7.10;;;2.50;99.90;;;;;;5090972;28;20029;-75
2023/01/23 09:05:28;;;;;;;15.43;6.20;;;2.50;99.90;;;;;;5091886;28;20089;-75
2023/01/23 09:07:54;;;;;;;18.03;6.27;;;2.60;99.90;;;;;;5090165;28;20034;-73
2023/01/23 09:10:20;;;;;;;14.53;6.33;;;2.60;99.90;;;;;;5090867;28;20099;-74
2023/01/23 09:12:46;;;;;;;17.40;6.47;;;2.60;99.90;;;;;;5090074;28;20024;-74
2023/01/23 09:15:11;;;;;;;15.50;6.70;;;2.60;99.90;;;;;;5089057;28;20028;-75
2023/01/23 09:17:37;;;;;;;13.50;6.73;;;2.60;99.90;;;;;;5093544;28;20020;-74
2023/01/23 09:20:05;;;;;;;12.63;6.27;;;2.60;99.90;;;;;;5091261;28;20036;-74
2023/01/23 09:22:31;;;;;;;14.93;6.60;;;2.60;99.90;;;;;;5103246;28;20461;-75
2023/01/23 09:24:57;;;;;;;12.60;6.17;;;2.60;99.90;;;;;;5091871;28;20028;-74
2023/01/23 09:27:23;;;;;;;12.53;5.67;;;2.70;99.90;;;;;;5092996;28;20480;-74
2023/01/23 09:29:49;;;;;;;16.27;6.77;;;2.70;99.90;;;;;;5111478;28;20023;-76
2023/01/23 09:32:15;;;;;;;16.03;7.13;;;2.80;99.90;;;;;;5115494;28;20027;-75
2023/01/23 09:34:41;;;;;;;15.17;7.17;;;2.80;99.90;;;;;;5096572;28;20023;-74
2023/01/23 09:37:06;;;;;;;13.63;7.00;;;2.90;99.90;;;;;;5096521;28;20031;-75
2023/01/23 09:39:32;;;;;;;14.20;6.83;;;2.90;99.90;;;;;;5097173;28;20020;-75
2023/01/23 09:42:06;;;;;;;14.23;6.60;;;2.90;99.90;;;;;;5096333;28;20035;-75
2023/01/23 09:44:37;;;;;;;21.57;9.43;;;2.90;99.90;;;;;;5096661;28;20114;-75
2023/01/23 09:47:13;;;;;;;16.93;7.67;;;2.90;99.90;;;;;;5096054;28;20028;-75
2023/01/23 09:49:49;;;;;;;14.53;7.13;;;2.90;99.90;;;;;;5114268;28;20067;-74
2023/01/23 09:52:24;;;;;;;14.13;6.83;;;3.00;99.90;;;;;;5102851;28;20026;-75
2023/01/23 09:55:21;;;;;;;16.77;7.63;;;3.00;99.90;;;;;;5095842;28;20031;-74
2023/01/23 09:57:59;;;;;;;16.43;7.47;;;2.90;99.90;;;;;;5092159;28;20460;-75
2023/01/23 10:00:29;;;;;;;13.80;6.83;;;3.00;99.90;;;;;;5096669;28;20039;-74
2023/01/23 10:02:56;;;;;;;14.30;6.67;;;3.00;99.90;;;;;;5096305;28;20028;-75
2023/01/23 10:06:03;;;;;;;13.03;6.60;;;3.00;99.90;;;;;;5097062;28;20031;-75
2023/01/23 10:08:44;;;;;;;15.53;6.83;;;3.10;99.90;;;;;;5097391;28;20051;-74
2023/01/23 10:11:24;;;;;;;15.63;7.27;;;3.10;99.90;;;;;;5114895;28;20119;-74
2023/01/23 10:14:10;;;;;;;15.57;6.27;;;3.20;99.90;;;;;;5098821;28;20043;-75
2023/01/23 10:16:51;;;;;;;13.33;6.00;;;3.20;99.90;;;;;;5097371;28;20076;-74
2023/01/23 10:19:22;;;;;;;15.73;7.07;;;3.20;99.90;;;;;;5096545;28;20078;-76
2023/01/23 10:22:22;;;;;;;14.75;6.72;;;3.30;99.90;;;;;;5099234;28;20027;-76
2023/01/23 10:24:56;;;;;;;12.87;6.60;;;3.30;99.90;;;;;;5075859;28;20034;-76
2023/01/23 10:27:25;;;;;;;15.40;6.70;;;3.30;99.90;;;;;;5091799;28;20055;-76
2023/01/23 10:29:58;;;;;;;14.93;6.13;;;3.30;99.90;;;;;;5112919;28;20027;-76
2023/01/23 10:32:26;;;;;;;14.67;5.77;;;3.30;99.90;;;;;;5096038;28;20016;-75
2023/01/23 10:35:24;;;;;;;11.97;6.00;;;3.40;99.90;;;;;;5096067;28;20032;-76
2023/01/23 10:38:11;;;;;;;17.87;7.00;;;3.40;99.90;;;;;;5049203;28;20030;-76
2023/01/23 10:43:21;;;;;;;11.80;5.73;;;3.30;99.90;;;;;;5113880;28;20043;-75
2023/01/23 10:45:48;;;;;;;12.90;5.50;;;3.30;99.90;;;;;;5096400;28;20368;-75
2023/01/23 10:48:38;;;;;;;12.93;6.17;;;3.30;99.90;;;;;;5095851;28;20016;-75
2023/01/23 10:51:04;;;;;;;11.00;4.97;;;3.40;99.90;;;;;;5085818;28;20032;-74
2023/01/23 10:53:29;;;;;;;11.83;5.73;;;3.30;99.90;;;;;;5090766;28;20034;-75
2023/01/23 10:55:59;;;;;;;11.00;5.80;;;3.30;99.90;;;;;;5095545;28;20039;-81
2023/01/23 10:58:32;;;;;;;12.90;6.03;;;3.30;99.90;;;;;;5096574;28;20034;-75
2023/01/23 11:00:58;;;;;;;12.67;5.97;;;3.30;99.90;;;;;;5095846;28;20036;-75
2023/01/23 11:03:33;;;;;;;11.73;5.40;;;3.30;99.90;;;;;;5095727;28;20354;-75
2023/01/23 11:06:05;;;;;;;9.33;5.20;;;3.40;99.90;;;;;;5094999;28;20019;-75
2023/01/23 11:08:37;;;;;;;9.27;4.63;;;3.40;99.90;;;;;;5095121;28;20062;-74
2023/01/23 11:11:15;;;;;;;12.43;5.95;;;3.40;99.90;;;;;;5094245;28;20062;-74
2023/01/23 11:13:47;;;;;;;10.60;5.60;;;3.40;99.90;;;;;;5094715;28;20114;-74
2023/01/23 11:16:21;;;;;;;11.32;5.88;;;3.40;99.90;;;;;;5082180;28;20019;-75
2023/01/23 11:19:01;;;;;;;11.17;5.70;;;3.50;99.90;;;;;;5077787;28;20059;-75
2023/01/23 11:21:30;;;;;;;10.53;5.20;;;3.50;99.90;;;;;;5096062;28;20071;-75
2023/01/23 11:24:19;;;;;;;12.30;5.60;;;3.50;99.90;;;;;;5112920;28;20027;-75
2023/01/23 11:26:45;;;;;;;10.27;5.23;;;3.50;99.90;;;;;;5098705;28;20012;-75
2023/01/23 11:29:22;;;;;;;11.53;5.67;;;3.50;99.90;;;;;;5097327;28;20519;-76
2023/01/23 11:32:02;;;;;;;12.23;5.60;;;3.60;99.90;;;;;;5079613;28;20023;-75
2023/01/23 11:34:35;;;;;;;11.33;5.50;;;3.60;99.90;;;;;;5097562;28;20102;-74
2023/01/23 11:37:07;;;;;;;9.87;5.20;;;3.60;99.90;;;;;;5097606;28;20422;-75
2023/01/23 11:39:42;;;;;;;10.00;5.25;;;3.70;99.90;;;;;;5098142;28;20020;-75
2023/01/23 11:42:12;;;;;;;10.77;5.13;;;3.70;99.90;;;;;;5084076;28;20042;-75
2023/01/23 11:44:40;;;;;;;11.40;5.67;;;3.80;99.90;;;;;;5097938;28;20026;-75
2023/01/23 11:47:17;;;;;;;13.17;5.90;;;3.90;99.90;;;;;;5112404;28;20465;-74
2023/01/23 11:50:01;;;;;;;9.83;4.80;;;4.00;99.90;;;;;;5096734;28;20031;-73
2023/01/23 11:52:49;;;;;;;12.67;5.33;;;4.00;99.90;;;;;;5101531;28;20031;-73
2023/01/23 11:55:55;;;;;;;10.30;5.30;;;4.10;99.90;;;;;;5109107;28;20368;-75
2023/01/23 11:58:45;;;;;;;11.57;5.53;;;4.10;99.90;;;;;;5105820;28;20031;-74
2023/01/23 12:01:33;;;;;;;10.77;5.90;;;4.30;99.90;;;;;;5111924;28;20132;-74
2023/01/23 12:04:04;;;;;;;10.90;5.17;;;4.20;99.90;;;;;;5107497;28;20055;-75
2023/01/23 12:06:48;;;;;;;9.88;5.10;;;4.20;99.90;;;;;;5108639;28;20015;-74
2023/01/23 12:09:16;;;;;;;10.23;5.00;;;4.30;99.90;;;;;;5101589;28;20122;-75
2023/01/23 12:12:04;;;;;;;10.63;5.13;;;4.40;99.90;;;;;;5085012;28;20454;-75
2023/01/23 12:14:41;;;;;;;10.87;5.13;;;4.50;99.90;;;;;;5084810;28;20476;-75
2023/01/23 12:17:29;;;;;;;11.53;5.57;;;4.50;99.90;;;;;;5094895;28;20031;-75
2023/01/23 12:20:16;;;;;;;10.13;4.90;;;4.80;99.90;;;;;;5105828;28;20044;-75
2023/01/23 12:22:45;;;;;;;11.23;5.27;;;5.00;99.90;;;;;;5088096;28;20036;-74
2023/01/23 12:25:32;;;;;;;10.43;5.30;;;5.10;99.90;;;;;;5083095;28;20147;-74
2023/01/23 12:28:23;;;;;;;10.33;5.10;;;5.10;99.90;;;;;;5093439;28;20032;-75
2023/01/23 12:31:17;;;;;;;12.03;5.40;;;5.10;99.90;;;;;;5101531;28;20094;-75
2023/01/23 12:33:55;;;;;;;10.00;5.10;;;5.00;99.90;;;;;;5108956;28;20031;-76
2023/01/23 12:36:53;;;;;;;10.87;5.27;;;4.90;99.90;;;;;;5108703;28;20019;-75
2023/01/23 12:40:00;;;;;;;11.53;5.70;;;4.80;99.90;;;;;;5111960;28;20028;-75
2023/01/23 12:42:31;;;;;;;13.87;5.30;;;4.60;99.90;;;;;;5110797;28;20432;-74
2023/01/23 12:45:17;;;;;;;12.20;5.40;;;4.60;99.90;;;;;;5096189;28;20046;-75
2023/01/23 12:47:57;;;;;;;11.33;5.30;;;4.50;99.90;;;;;;5092274;28;20473;-75
2023/01/23 12:50:36;;;;;;;11.07;5.60;;;4.60;99.90;;;;;;5102923;28;20028;-74
2023/01/23 12:53:17;;;;;;;13.27;5.30;;;4.70;99.90;;;;;;5111124;28;20532;-74
2023/01/23 12:55:55;;;;;;;13.77;5.87;;;5.10;99.90;;;;;;5099950;28;20027;-75
2023/01/23 12:58:22;;;;;;;11.27;5.33;;;5.10;99.90;;;;;;5109502;28;20481;-75
2023/01/23 13:00:47;;;;;;;11.57;6.13;;;5.00;99.90;;;;;;5107627;28;20031;-74
2023/01/23 13:03:22;;;;;;;10.67;5.10;;;5.00;99.90;;;;;;5100050;28;20024;-75
2023/01/23 13:06:00;;;;;;;8.87;5.00;;;5.00;99.90;;;;;;5094151;28;20026;-75
2023/01/23 13:08:47;;;;;;;10.70;5.27;;;4.80;99.90;;;;;;5102571;28;20031;-73
2023/01/23 13:11:41;;;;;;;12.93;5.70;;;4.70;99.90;;;;;;5093256;28;20028;-75